sensor_id;sensor_type;location;lat;lon;timestamp;pressure;altitude;pressure_sealevel;temperature;humidity
68456;BME280;55437;55.046;38.838;2023-07-22T00:01:35;99360.25;;;13.43;77.93
68456;BME280;55437;55.046;38.838;2023-07-22T00:04:02;99357.69;;;13.43;77.56
68456;BME280;55437;55.046;38.838;2023-07-22T00:06:29;99351.78;;;13.41;77.71
68456;BME280;55437;55.046;38.838;2023-07-22T00:08:54;99357.94;;;13.39;77.90
68456;BME280;55437;55.046;38.838;2023-07-22T00:11:20;99358.84;;;13.38;77.94
68456;BME280;55437;55.046;38.838;2023-07-22T00:13:46;99356.34;;;13.36;78.00
68456;BME280;55437;55.046;38.838;2023-07-22T00:16:12;99360.75;;;13.34;78.23
68456;BME280;55437;55.046;38.838;2023-07-22T00:18:38;99355.72;;;13.31;78.04
68456;BME280;55437;55.046;38.838;2023-07-22T00:21:05;99359.22;;;13.30;78.28
68456;BME280;55437;55.046;38.838;2023-07-22T00:23:32;99362.72;;;13.29;78.10
68456;BME280;55437;55.046;38.838;2023-07-22T00:25:58;99365.47;;;13.26;78.30
68456;BME280;55437;55.046;38.838;2023-07-22T00:28:23;99371.53;;;13.25;78.15
68456;BME280;55437;55.046;38.838;2023-07-22T00:30:49;99370.75;;;13.23;78.41
68456;BME280;55437;55.046;38.838;2023-07-22T00:33:15;99376.81;;;13.22;78.49
68456;BME280;55437;55.046;38.838;2023-07-22T00:35:42;99385.41;;;13.22;78.56
68456;BME280;55437;55.046;38.838;2023-07-22T00:38:07;99377.81;;;13.19;78.55
68456;BME280;55437;55.046;38.838;2023-07-22T00:40:35;99383.81;;;13.20;78.56
68456;BME280;55437;55.046;38.838;2023-07-22T00:43:01;99380.47;;;13.18;78.55
68456;BME280;55437;55.046;38.838;2023-07-22T00:45:26;99384.78;;;13.17;78.58
68456;BME280;55437;55.046;38.838;2023-07-22T00:47:53;99388.19;;;13.18;78.37
68456;BME280;55437;55.046;38.838;2023-07-22T00:50:18;99384.97;;;13.14;78.40
68456;BME280;55437;55.046;38.838;2023-07-22T00:52:44;99395.28;;;13.14;78.57
68456;BME280;55437;55.046;38.838;2023-07-22T00:55:10;99403.03;;;13.13;78.65
68456;BME280;55437;55.046;38.838;2023-07-22T00:57:37;99403.03;;;13.13;78.54
68456;BME280;55437;55.046;38.838;2023-07-22T01:00:04;99392.88;;;13.10;78.51
68456;BME280;55437;55.046;38.838;2023-07-22T01:02:35;99412.59;;;13.11;78.85
68456;BME280;55437;55.046;38.838;2023-07-22T01:05:01;99410.16;;;13.08;78.69
68456;BME280;55437;55.046;38.838;2023-07-22T01:07:33;99418.88;;;13.05;78.64
68456;BME280;55437;55.046;38.838;2023-07-22T01:10:00;99414.72;;;13.03;78.59
68456;BME280;55437;55.046;38.838;2023-07-22T01:12:31;99412.97;;;13.03;78.50
68456;BME280;55437;55.046;38.838;2023-07-22T01:14:57;99414.72;;;13.03;78.49
68456;BME280;55437;55.046;38.838;2023-07-22T01:17:24;99418.97;;;13.04;78.56
68456;BME280;55437;55.046;38.838;2023-07-22T01:20:09;99415.56;;;13.03;78.57
68456;BME280;55437;55.046;38.838;2023-07-22T01:22:36;99412.97;;;13.03;78.53
68456;BME280;55437;55.046;38.838;2023-07-22T01:25:03;99424.56;;;13.12;78.43
68456;BME280;55437;55.046;38.838;2023-07-22T01:27:51;99425.91;;;13.38;77.99
68456;BME280;55437;55.046;38.838;2023-07-22T01:30:17;99426.06;;;13.67;77.47
68456;BME280;55437;55.046;38.838;2023-07-22T01:32:43;99426.25;;;13.97;76.61
68456;BME280;55437;55.046;38.838;2023-07-22T01:35:11;99425.53;;;14.27;75.86
68456;BME280;55437;55.046;38.838;2023-07-22T01:37:36;99424.47;;;14.62;75.21
68456;BME280;55437;55.046;38.838;2023-07-22T01:40:03;99434.63;;;14.97;73.82
68456;BME280;55437;55.046;38.838;2023-07-22T01:42:41;99439.25;;;15.36;72.54
68456;BME280;55437;55.046;38.838;2023-07-22T01:45:08;99434.19;;;15.64;71.59
68456;BME280;55437;55.046;38.838;2023-07-22T01:47:38;99439.59;;;16.04;70.29
68456;BME280;55437;55.046;38.838;2023-07-22T01:50:05;99437.88;;;16.31;69.34
68456;BME280;55437;55.046;38.838;2023-07-22T01:52:34;99441.53;;;16.70;68.35
68456;BME280;55437;55.046;38.838;2023-07-22T01:55:00;99445.38;;;17.04;67.44
68456;BME280;55437;55.046;38.838;2023-07-22T01:57:29;99441.94;;;17.43;66.18
68456;BME280;55437;55.046;38.838;2023-07-22T01:59:55;99438.88;;;17.76;65.12
68456;BME280;55437;55.046;38.838;2023-07-22T02:02:20;99443.03;;;18.16;63.88
68456;BME280;55437;55.046;38.838;2023-07-22T02:04:46;99436.53;;;18.47;62.74
68456;BME280;55437;55.046;38.838;2023-07-22T02:07:13;99444.09;;;18.87;61.52
68456;BME280;55437;55.046;38.838;2023-07-22T02:09:39;99441.50;;;19.22;60.91
68456;BME280;55437;55.046;38.838;2023-07-22T02:12:07;99444.41;;;19.65;59.61
68456;BME280;55437;55.046;38.838;2023-07-22T02:14:33;99436.84;;;20.06;58.47
68456;BME280;55437;55.046;38.838;2023-07-22T02:16:59;99444.78;;;20.49;57.10
68456;BME280;55437;55.046;38.838;2023-07-22T02:19:25;99447.78;;;20.88;56.17
68456;BME280;55437;55.046;38.838;2023-07-22T02:21:52;99453.84;;;21.20;55.24
68456;BME280;55437;55.046;38.838;2023-07-22T02:24:43;99453.22;;;21.70;53.99
68456;BME280;55437;55.046;38.838;2023-07-22T02:27:09;99452.31;;;22.01;53.09
68456;BME280;55437;55.046;38.838;2023-07-22T02:29:34;99449.16;;;22.47;51.88
68456;BME280;55437;55.046;38.838;2023-07-22T02:32:00;99454.78;;;22.92;50.68
68456;BME280;55437;55.046;38.838;2023-07-22T02:34:27;99463.06;;;23.26;49.82
68456;BME280;55437;55.046;38.838;2023-07-22T02:36:53;99460.44;;;23.55;49.13
68456;BME280;55437;55.046;38.838;2023-07-22T02:39:20;99462.44;;;23.90;47.83
68456;BME280;55437;55.046;38.838;2023-07-22T02:41:45;99461.78;;;24.25;47.14
68456;BME280;55437;55.046;38.838;2023-07-22T02:44:11;99460.50;;;24.57;46.44
68456;BME280;55437;55.046;38.838;2023-07-22T02:46:38;99466.69;;;24.83;45.70
68456;BME280;55437;55.046;38.838;2023-07-22T02:49:04;99459.81;;;25.00;45.07
68456;BME280;55437;55.046;38.838;2023-07-22T02:51:30;99464.31;;;25.25;44.72
68456;BME280;55437;55.046;38.838;2023-07-22T02:53:56;99462.50;;;25.61;43.64
68456;BME280;55437;55.046;38.838;2023-07-22T02:56:40;99457.56;;;26.18;42.36
68456;BME280;55437;55.046;38.838;2023-07-22T02:59:07;99452.66;;;26.65;41.06
68456;BME280;55437;55.046;38.838;2023-07-22T03:01:34;99465.75;;;27.07;40.27
68456;BME280;55437;55.046;38.838;2023-07-22T03:04:00;99468.59;;;27.38;39.62
68456;BME280;55437;55.046;38.838;2023-07-22T03:06:25;99463.47;;;27.69;38.76
68456;BME280;55437;55.046;38.838;2023-07-22T03:08:51;99478.94;;;27.88;38.35
68456;BME280;55437;55.046;38.838;2023-07-22T03:11:18;99476.25;;;28.05;38.28
68456;BME280;55437;55.046;38.838;2023-07-22T03:13:44;99477.06;;;28.21;37.78
68456;BME280;55437;55.046;38.838;2023-07-22T03:16:11;99481.34;;;28.06;37.82
68456;BME280;55437;55.046;38.838;2023-07-22T03:18:39;99479.94;;;27.55;38.39
68456;BME280;55437;55.046;38.838;2023-07-22T03:21:05;99469.00;;;26.77;39.52
68456;BME280;55437;55.046;38.838;2023-07-22T03:23:31;99474.78;;;26.04;40.82
68456;BME280;55437;55.046;38.838;2023-07-22T03:25:57;99476.38;;;25.71;41.51
68456;BME280;55437;55.046;38.838;2023-07-22T03:28:22;99475.66;;;25.87;41.27
68456;BME280;55437;55.046;38.838;2023-07-22T03:30:48;99470.34;;;26.39;40.77
68456;BME280;55437;55.046;38.838;2023-07-22T03:33:14;99465.59;;;27.01;40.20
68456;BME280;55437;55.046;38.838;2023-07-22T03:35:40;99468.25;;;27.66;39.06
68456;BME280;55437;55.046;38.838;2023-07-22T03:38:06;99470.44;;;28.17;38.10
68456;BME280;55437;55.046;38.838;2023-07-22T03:40:32;99481.34;;;28.61;37.25
68456;BME280;55437;55.046;38.838;2023-07-22T03:42:58;99479.06;;;28.89;36.80
68456;BME280;55437;55.046;38.838;2023-07-22T03:45:24;99485.75;;;29.00;36.26
68456;BME280;55437;55.046;38.838;2023-07-22T03:47:52;99488.91;;;28.64;36.65
68456;BME280;55437;55.046;38.838;2023-07-22T03:50:18;99487.13;;;28.02;37.50
68456;BME280;55437;55.046;38.838;2023-07-22T03:52:44;99491.66;;;27.28;39.01
68456;BME280;55437;55.046;38.838;2023-07-22T03:55:11;99491.03;;;26.76;39.92
68456;BME280;55437;55.046;38.838;2023-07-22T03:57:36;99486.31;;;26.11;40.83
68456;BME280;55437;55.046;38.838;2023-07-22T04:00:02;99481.84;;;25.60;41.53
68456;BME280;55437;55.046;38.838;2023-07-22T04:02:38;99487.00;;;25.08;42.38
68456;BME280;55437;55.046;38.838;2023-07-22T04:05:04;99487.81;;;24.64;43.42
68456;BME280;55437;55.046;38.838;2023-07-22T04:07:30;99484.13;;;24.29;44.05
68456;BME280;55437;55.046;38.838;2023-07-22T04:09:56;99481.44;;;24.02;44.71
68456;BME280;55437;55.046;38.838;2023-07-22T04:12:23;99479.69;;;23.83;44.97
68456;BME280;55437;55.046;38.838;2023-07-22T04:14:49;99472.03;;;24.09;44.75
68456;BME280;55437;55.046;38.838;2023-07-22T04:17:14;99476.94;;;24.59;44.01
68456;BME280;55437;55.046;38.838;2023-07-22T04:19:41;99472.03;;;24.73;43.85
68456;BME280;55437;55.046;38.838;2023-07-22T04:22:08;99478.53;;;24.97;43.69
68456;BME280;55437;55.046;38.838;2023-07-22T04:24:34;99480.69;;;25.19;43.34
68456;BME280;55437;55.046;38.838;2023-07-22T04:27:01;99492.28;;;25.08;43.35
68456;BME280;55437;55.046;38.838;2023-07-22T04:29:27;99487.66;;;24.93;43.37
68456;BME280;55437;55.046;38.838;2023-07-22T04:32:00;99488.50;;;24.93;43.43
68456;BME280;55437;55.046;38.838;2023-07-22T04:34:31;99492.00;;;24.84;44.04
68456;BME280;55437;55.046;38.838;2023-07-22T04:36:57;99493.59;;;24.67;44.50
68456;BME280;55437;55.046;38.838;2023-07-22T04:39:23;99498.13;;;24.48;44.96
68456;BME280;55437;55.046;38.838;2023-07-22T04:41:50;99496.00;;;24.33;45.40
68456;BME280;55437;55.046;38.838;2023-07-22T04:44:17;99498.75;;;24.32;45.36
68456;BME280;55437;55.046;38.838;2023-07-22T04:46:43;99503.34;;;24.57;45.28
68456;BME280;55437;55.046;38.838;2023-07-22T04:49:08;99508.78;;;24.91;44.97
68456;BME280;55437;55.046;38.838;2023-07-22T04:51:34;99502.53;;;25.37;44.22
68456;BME280;55437;55.046;38.838;2023-07-22T04:54:00;99507.59;;;25.92;43.43
68456;BME280;55437;55.046;38.838;2023-07-22T04:56:26;99503.66;;;26.56;42.80
68456;BME280;55437;55.046;38.838;2023-07-22T04:58:52;99510.75;;;27.22;42.00
68456;BME280;55437;55.046;38.838;2023-07-22T05:01:18;99505.34;;;27.80;40.35
68456;BME280;55437;55.046;38.838;2023-07-22T05:03:44;99511.34;;;28.29;39.38
68456;BME280;55437;55.046;38.838;2023-07-22T05:06:10;99511.31;;;28.85;38.35
68456;BME280;55437;55.046;38.838;2023-07-22T05:08:36;99509.94;;;29.20;37.80
68456;BME280;55437;55.046;38.838;2023-07-22T05:11:03;99504.50;;;29.13;37.63
68456;BME280;55437;55.046;38.838;2023-07-22T05:13:29;99501.03;;;29.13;37.37
68456;BME280;55437;55.046;38.838;2023-07-22T05:15:55;99502.56;;;29.30;37.17
68456;BME280;55437;55.046;38.838;2023-07-22T05:18:21;99512.03;;;29.47;36.97
68456;BME280;55437;55.046;38.838;2023-07-22T05:20:47;99508.09;;;29.66;37.00
68456;BME280;55437;55.046;38.838;2023-07-22T05:23:13;99504.19;;;29.91;36.57
68456;BME280;55437;55.046;38.838;2023-07-22T05:25:39;99508.28;;;30.17;35.80
68456;BME280;55437;55.046;38.838;2023-07-22T05:28:05;99502.22;;;30.37;35.37
68456;BME280;55437;55.046;38.838;2023-07-22T05:30:32;99497.56;;;30.39;35.30
68456;BME280;55437;55.046;38.838;2023-07-22T05:33:00;99502.56;;;30.49;35.26
68456;BME280;55437;55.046;38.838;2023-07-22T05:35:27;99503.22;;;30.51;35.22
68456;BME280;55437;55.046;38.838;2023-07-22T05:37:52;99505.78;;;30.59;35.35
68456;BME280;55437;55.046;38.838;2023-07-22T05:40:19;99503.50;;;30.92;34.68
68456;BME280;55437;55.046;38.838;2023-07-22T05:42:44;99506.44;;;31.19;34.01
68456;BME280;55437;55.046;38.838;2023-07-22T05:45:10;99502.47;;;31.29;33.73
68456;BME280;55437;55.046;38.838;2023-07-22T05:47:40;99509.41;;;31.30;33.52
68456;BME280;55437;55.046;38.838;2023-07-22T05:50:06;99502.66;;;31.28;33.58
68456;BME280;55437;55.046;38.838;2023-07-22T05:52:33;99503.94;;;31.32;33.22
68456;BME280;55437;55.046;38.838;2023-07-22T05:54:59;99499.00;;;31.50;33.25
68456;BME280;55437;55.046;38.838;2023-07-22T05:57:24;99508.72;;;31.64;32.75
68456;BME280;55437;55.046;38.838;2023-07-22T05:59:50;99505.88;;;31.94;32.07
68456;BME280;55437;55.046;38.838;2023-07-22T06:02:17;99497.34;;;32.33;31.89
68456;BME280;55437;55.046;38.838;2023-07-22T06:04:44;99503.44;;;32.74;30.94
68456;BME280;55437;55.046;38.838;2023-07-22T06:07:10;99494.88;;;32.85;30.51
68456;BME280;55437;55.046;38.838;2023-07-22T06:09:35;99497.22;;;33.08;30.50
68456;BME280;55437;55.046;38.838;2023-07-22T06:12:02;99499.09;;;33.41;30.06
68456;BME280;55437;55.046;38.838;2023-07-22T06:14:31;99502.38;;;33.62;29.52
68456;BME280;55437;55.046;38.838;2023-07-22T06:16:57;99499.72;;;33.89;29.18
68456;BME280;55437;55.046;38.838;2023-07-22T06:19:23;99500.47;;;34.09;28.45
68456;BME280;55437;55.046;38.838;2023-07-22T06:21:49;99499.41;;;34.30;28.16
68456;BME280;55437;55.046;38.838;2023-07-22T06:24:15;99501.00;;;34.51;28.02
68456;BME280;55437;55.046;38.838;2023-07-22T06:26:41;99507.84;;;34.78;27.90
68456;BME280;55437;55.046;38.838;2023-07-22T06:29:07;99508.81;;;34.90;28.08
68456;BME280;55437;55.046;38.838;2023-07-22T06:31:33;99506.38;;;34.89;27.53
68456;BME280;55437;55.046;38.838;2023-07-22T06:33:59;99506.50;;;35.00;26.70
68456;BME280;55437;55.046;38.838;2023-07-22T06:36:26;99505.63;;;35.07;26.72
68456;BME280;55437;55.046;38.838;2023-07-22T06:38:52;99504.00;;;35.06;27.25
68456;BME280;55437;55.046;38.838;2023-07-22T06:41:18;99506.38;;;35.20;27.28
68456;BME280;55437;55.046;38.838;2023-07-22T06:43:45;99504.56;;;35.46;27.26
68456;BME280;55437;55.046;38.838;2023-07-22T06:46:11;99497.50;;;35.51;26.96
68456;BME280;55437;55.046;38.838;2023-07-22T06:48:37;99497.50;;;35.51;27.31
68456;BME280;55437;55.046;38.838;2023-07-22T06:51:03;99495.44;;;35.53;27.12
68456;BME280;55437;55.046;38.838;2023-07-22T06:53:29;99488.84;;;35.56;26.84
68456;BME280;55437;55.046;38.838;2023-07-22T06:55:57;99485.66;;;35.47;26.64
68456;BME280;55437;55.046;38.838;2023-07-22T06:58:22;99495.31;;;35.48;26.94
68456;BME280;55437;55.046;38.838;2023-07-22T07:00:53;99489.97;;;35.66;26.94
68456;BME280;55437;55.046;38.838;2023-07-22T07:03:39;99489.50;;;35.76;26.31
68456;BME280;55437;55.046;38.838;2023-07-22T07:06:05;99491.09;;;35.84;26.47
68456;BME280;55437;55.046;38.838;2023-07-22T07:08:31;99489.88;;;35.80;26.69
68456;BME280;55437;55.046;38.838;2023-07-22T07:11:16;99489.47;;;35.83;26.55
68456;BME280;55437;55.046;38.838;2023-07-22T07:13:42;99481.66;;;35.81;26.42
68456;BME280;55437;55.046;38.838;2023-07-22T07:16:29;99480.91;;;35.74;26.02
68456;BME280;55437;55.046;38.838;2023-07-22T07:19:00;99483.59;;;35.74;26.32
68456;BME280;55437;55.046;38.838;2023-07-22T07:21:27;99489.78;;;35.43;25.93
68456;BME280;55437;55.046;38.838;2023-07-22T07:23:53;99485.09;;;35.38;26.34
68456;BME280;55437;55.046;38.838;2023-07-22T07:26:20;99485.66;;;35.47;26.79
68456;BME280;55437;55.046;38.838;2023-07-22T07:28:50;99487.44;;;35.53;25.85
68456;BME280;55437;55.046;38.838;2023-07-22T07:31:17;99485.69;;;35.41;26.12
68456;BME280;55437;55.046;38.838;2023-07-22T07:33:43;99489.25;;;35.34;26.56
68456;BME280;55437;55.046;38.838;2023-07-22T07:36:09;99484.84;;;35.47;26.51
68456;BME280;55437;55.046;38.838;2023-07-22T07:38:34;99490.28;;;35.58;26.62
68456;BME280;55437;55.046;38.838;2023-07-22T07:41:05;99485.16;;;35.32;26.65
68456;BME280;55437;55.046;38.838;2023-07-22T07:43:35;99494.03;;;35.19;26.68
68456;BME280;55437;55.046;38.838;2023-07-22T07:46:20;99496.38;;;34.71;26.59
68456;BME280;55437;55.046;38.838;2023-07-22T07:48:56;99495.13;;;34.80;26.89
68456;BME280;55437;55.046;38.838;2023-07-22T07:51:24;99495.44;;;34.97;27.40
68456;BME280;55437;55.046;38.838;2023-07-22T07:53:54;99490.72;;;34.99;26.45
68456;BME280;55437;55.046;38.838;2023-07-22T07:56:20;99488.88;;;34.93;26.33
68456;BME280;55437;55.046;38.838;2023-07-22T07:58:49;99488.53;;;34.83;26.22
68456;BME280;55437;55.046;38.838;2023-07-22T08:01:15;99494.53;;;34.72;26.81
68456;BME280;55437;55.046;38.838;2023-07-22T08:03:43;99491.84;;;34.72;27.01
68456;BME280;55437;55.046;38.838;2023-07-22T08:06:10;99492.03;;;34.39;27.22
68456;BME280;55437;55.046;38.838;2023-07-22T08:08:36;99496.53;;;34.25;27.02
68456;BME280;55437;55.046;38.838;2023-07-22T08:11:05;99499.41;;;34.30;26.75
68456;BME280;55437;55.046;38.838;2023-07-22T08:13:31;99490.66;;;33.70;27.30
68456;BME280;55437;55.046;38.838;2023-07-22T08:16:07;99491.94;;;33.28;28.27
68456;BME280;55437;55.046;38.838;2023-07-22T08:18:34;99484.56;;;33.37;27.47
68456;BME280;55437;55.046;38.838;2023-07-22T08:21:02;99488.81;;;33.71;27.85
68456;BME280;55437;55.046;38.838;2023-07-22T08:23:29;99483.94;;;33.54;28.68
68456;BME280;55437;55.046;38.838;2023-07-22T08:25:55;99477.81;;;33.80;28.34
68456;BME280;55437;55.046;38.838;2023-07-22T08:28:24;99489.03;;;34.02;27.96
68456;BME280;55437;55.046;38.838;2023-07-22T08:30:54;99485.88;;;34.18;27.69
68456;BME280;55437;55.046;38.838;2023-07-22T08:33:25;99487.97;;;34.16;27.84
68456;BME280;55437;55.046;38.838;2023-07-22T08:35:52;99490.66;;;33.96;27.60
68456;BME280;55437;55.046;38.838;2023-07-22T08:38:20;99488.03;;;33.37;28.19
68456;BME280;55437;55.046;38.838;2023-07-22T08:40:49;99491.31;;;33.26;28.54
68456;BME280;55437;55.046;38.838;2023-07-22T08:43:20;99485.13;;;33.12;28.24
68456;BME280;55437;55.046;38.838;2023-07-22T08:45:48;99482.03;;;32.35;29.27
68456;BME280;55437;55.046;38.838;2023-07-22T08:48:16;99492.78;;;32.20;29.44
68456;BME280;55437;55.046;38.838;2023-07-22T08:53:18;99482.78;;;31.66;29.66
68456;BME280;55437;55.046;38.838;2023-07-22T08:55:46;99480.38;;;31.22;30.23
68456;BME280;55437;55.046;38.838;2023-07-22T08:58:13;99474.94;;;30.73;31.43
68456;BME280;55437;55.046;38.838;2023-07-22T09:00:40;99475.75;;;30.23;32.29
68456;BME280;55437;55.046;38.838;2023-07-22T09:03:06;99475.94;;;29.31;33.88
68456;BME280;55437;55.046;38.838;2023-07-22T09:05:34;99475.13;;;29.08;34.53
68456;BME280;55437;55.046;38.838;2023-07-22T09:08:05;99474.97;;;29.10;34.93
68456;BME280;55437;55.046;38.838;2023-07-22T09:10:34;99472.84;;;29.05;34.96
68456;BME280;55437;55.046;38.838;2023-07-22T09:13:00;99476.78;;;29.09;34.95
68456;BME280;55437;55.046;38.838;2023-07-22T09:15:28;99476.00;;;29.23;35.03
68456;BME280;55437;55.046;38.838;2023-07-22T09:17:54;99470.34;;;29.26;34.74
68456;BME280;55437;55.046;38.838;2023-07-22T09:20:39;99469.78;;;29.16;35.29
68456;BME280;55437;55.046;38.838;2023-07-22T09:23:05;99470.50;;;29.10;35.08
68456;BME280;55437;55.046;38.838;2023-07-22T09:25:31;99466.78;;;28.96;35.20
68456;BME280;55437;55.046;38.838;2023-07-22T09:28:01;99460.56;;;28.58;36.18
68456;BME280;55437;55.046;38.838;2023-07-22T09:30:27;99460.72;;;28.10;36.86
68456;BME280;55437;55.046;38.838;2023-07-22T09:32:55;99471.47;;;28.08;36.68
68456;BME280;55437;55.046;38.838;2023-07-22T09:35:23;99460.28;;;27.98;36.93
68456;BME280;55437;55.046;38.838;2023-07-22T09:37:52;99463.47;;;27.77;37.01
68456;BME280;55437;55.046;38.838;2023-07-22T09:40:26;99461.50;;;27.47;37.61
68456;BME280;55437;55.046;38.838;2023-07-22T09:42:55;99459.34;;;27.34;37.98
68456;BME280;55437;55.046;38.838;2023-07-22T09:45:23;99468.75;;;27.04;38.36
68456;BME280;55437;55.046;38.838;2023-07-22T09:47:51;99467.91;;;27.20;38.41
68456;BME280;55437;55.046;38.838;2023-07-22T09:50:19;99472.28;;;26.87;39.35
68456;BME280;55437;55.046;38.838;2023-07-22T09:52:50;99463.03;;;26.67;40.16
68456;BME280;55437;55.046;38.838;2023-07-22T09:55:29;99460.72;;;26.72;39.91
68456;BME280;55437;55.046;38.838;2023-07-22T09:57:58;99462.75;;;26.86;39.69
68456;BME280;55437;55.046;38.838;2023-07-22T10:00:28;99464.94;;;26.99;39.92
68456;BME280;55437;55.046;38.838;2023-07-22T10:02:57;99456.72;;;27.10;39.03
68456;BME280;55437;55.046;38.838;2023-07-22T10:05:25;99461.47;;;26.98;38.84
68456;BME280;55437;55.046;38.838;2023-07-22T10:07:53;99472.34;;;26.95;39.45
68456;BME280;55437;55.046;38.838;2023-07-22T10:10:23;99472.38;;;27.03;39.57
68456;BME280;55437;55.046;38.838;2023-07-22T10:12:49;99463.13;;;27.07;39.94
68456;BME280;55437;55.046;38.838;2023-07-22T10:15:16;99476.63;;;26.96;39.75
68456;BME280;55437;55.046;38.838;2023-07-22T10:17:46;99473.44;;;26.84;40.10
68456;BME280;55437;55.046;38.838;2023-07-22T10:20:13;99480.66;;;26.66;40.77
68456;BME280;55437;55.046;38.838;2023-07-22T10:22:43;99479.63;;;26.59;41.24
68456;BME280;55437;55.046;38.838;2023-07-22T10:25:18;99490.38;;;26.66;40.82
68456;BME280;55437;55.046;38.838;2023-07-22T10:27:47;99478.69;;;26.76;40.58
68456;BME280;55437;55.046;38.838;2023-07-22T10:30:15;99475.41;;;26.74;40.93
68456;BME280;55437;55.046;38.838;2023-07-22T10:32:42;99489.03;;;26.62;40.01
68456;BME280;55437;55.046;38.838;2023-07-22T10:38:15;99483.81;;;26.36;41.19
68456;BME280;55437;55.046;38.838;2023-07-22T10:40:49;99473.97;;;26.46;39.90
68456;BME280;55437;55.046;38.838;2023-07-22T10:43:17;99483.59;;;26.63;40.35
68456;BME280;55437;55.046;38.838;2023-07-22T10:45:49;99466.00;;;26.72;40.00
68456;BME280;55437;55.046;38.838;2023-07-22T10:48:16;99473.94;;;26.80;39.41
68456;BME280;55437;55.046;38.838;2023-07-22T10:50:42;99466.03;;;26.80;40.00
68456;BME280;55437;55.046;38.838;2023-07-22T11:01:35;99475.75;;;26.87;39.73
68456;BME280;55437;55.046;38.838;2023-07-22T11:04:21;99473.75;;;26.73;39.62
68456;BME280;55437;55.046;38.838;2023-07-22T11:07:03;99473.53;;;26.59;38.49
68456;BME280;55437;55.046;38.838;2023-07-22T11:09:48;99473.13;;;26.37;38.96
68456;BME280;55437;55.046;38.838;2023-07-22T11:12:16;99476.09;;;26.08;39.70
68456;BME280;55437;55.046;38.838;2023-07-22T11:17:18;99479.63;;;25.65;41.01
68456;BME280;55437;55.046;38.838;2023-07-22T11:19:52;99478.53;;;25.76;40.51
68456;BME280;55437;55.046;38.838;2023-07-22T11:22:18;99486.66;;;25.82;40.43
68456;BME280;55437;55.046;38.838;2023-07-22T11:24:44;99491.16;;;25.98;40.70
68456;BME280;55437;55.046;38.838;2023-07-22T11:27:11;99486.78;;;26.07;40.49
68456;BME280;55437;55.046;38.838;2023-07-22T11:29:38;99496.50;;;26.06;39.98
68456;BME280;55437;55.046;38.838;2023-07-22T11:32:05;99497.59;;;25.96;40.60
68456;BME280;55437;55.046;38.838;2023-07-22T11:34:33;99503.84;;;25.77;41.10
68456;BME280;55437;55.046;38.838;2023-07-22T11:36:59;99495.59;;;25.54;41.55
68456;BME280;55437;55.046;38.838;2023-07-22T11:39:26;99492.53;;;25.41;41.93
68456;BME280;55437;55.046;38.838;2023-07-22T11:41:53;99487.59;;;25.38;42.27
68456;BME280;55437;55.046;38.838;2023-07-22T11:44:21;99479.94;;;25.27;41.97
68456;BME280;55437;55.046;38.838;2023-07-22T11:46:49;99484.75;;;25.31;41.25
68456;BME280;55437;55.046;38.838;2023-07-22T11:54:29;99481.59;;;25.28;41.03
68456;BME280;55437;55.046;38.838;2023-07-22T11:56:56;99476.34;;;25.28;41.19
68456;BME280;55437;55.046;38.838;2023-07-22T11:59:39;99480.75;;;25.27;41.43
68456;BME280;55437;55.046;38.838;2023-07-22T12:02:05;99478.44;;;25.24;41.23
68456;BME280;55437;55.046;38.838;2023-07-22T12:04:33;99479.72;;;25.20;41.73
68456;BME280;55437;55.046;38.838;2023-07-22T12:07:01;99478.22;;;25.18;41.91
68456;BME280;55437;55.046;38.838;2023-07-22T12:09:27;99474.63;;;25.19;42.31
68456;BME280;55437;55.046;38.838;2023-07-22T12:11:57;99479.81;;;25.10;42.32
68456;BME280;55437;55.046;38.838;2023-07-22T12:14:25;99472.50;;;25.04;42.50
68456;BME280;55437;55.046;38.838;2023-07-22T12:16:57;99477.78;;;25.04;42.50
68456;BME280;55437;55.046;38.838;2023-07-22T12:19:24;99474.03;;;25.07;42.58
68456;BME280;55437;55.046;38.838;2023-07-22T12:21:50;99472.38;;;25.06;42.49
68456;BME280;55437;55.046;38.838;2023-07-22T12:24:15;99455.94;;;25.04;41.91
68456;BME280;55437;55.046;38.838;2023-07-22T12:26:41;99448.19;;;25.02;41.88
68456;BME280;55437;55.046;38.838;2023-07-22T12:29:08;99452.25;;;24.97;41.20
68456;BME280;55437;55.046;38.838;2023-07-22T12:31:34;99451.94;;;25.00;41.45
68456;BME280;55437;55.046;38.838;2023-07-22T12:33:59;99459.66;;;25.01;41.49
68456;BME280;55437;55.046;38.838;2023-07-22T12:36:25;99457.03;;;25.01;42.37
68456;BME280;55437;55.046;38.838;2023-07-22T12:38:51;99454.75;;;24.98;42.31
68456;BME280;55437;55.046;38.838;2023-07-22T12:41:17;99452.25;;;24.97;42.52
68456;BME280;55437;55.046;38.838;2023-07-22T12:43:43;99461.41;;;24.93;42.81
68456;BME280;55437;55.046;38.838;2023-07-22T12:46:08;99465.03;;;24.82;42.90
68456;BME280;55437;55.046;38.838;2023-07-22T12:48:34;99463.69;;;24.78;42.48
68456;BME280;55437;55.046;38.838;2023-07-22T12:51:00;99467.59;;;24.74;42.15
68456;BME280;55437;55.046;38.838;2023-07-22T12:53:27;99464.56;;;24.69;42.04
68456;BME280;55437;55.046;38.838;2023-07-22T12:55:53;99468.16;;;24.68;41.99
68456;BME280;55437;55.046;38.838;2023-07-22T12:58:19;99459.47;;;24.67;41.80
68456;BME280;55437;55.046;38.838;2023-07-22T13:00:45;99459.97;;;24.53;42.19
68456;BME280;55437;55.046;38.838;2023-07-22T13:03:12;99451.19;;;24.45;42.64
68456;BME280;55437;55.046;38.838;2023-07-22T13:05:38;99458.13;;;24.36;42.71
68456;BME280;55437;55.046;38.838;2023-07-22T13:08:03;99458.13;;;24.36;42.53
68456;BME280;55437;55.046;38.838;2023-07-22T13:10:29;99456.34;;;24.36;42.37
68456;BME280;55437;55.046;38.838;2023-07-22T13:12:57;99455.22;;;24.39;42.29
68456;BME280;55437;55.046;38.838;2023-07-22T13:15:23;99452.16;;;24.44;42.08